createdAt,value
2022-10-31T00:00:02.911Z,7.77
2022-10-31T00:01:02.888Z,7.69
2022-10-31T00:02:02.968Z,7.69
2022-10-31T00:03:03.279Z,7.77
2022-10-31T00:04:02.837Z,7.80
2022-10-31T00:05:03.439Z,7.79
2022-10-31T00:06:02.838Z,7.75
2022-10-31T00:07:02.819Z,7.74
2022-10-31T00:08:02.802Z,7.75
2022-10-31T00:09:02.788Z,7.74
2022-10-31T00:10:02.781Z,7.74
2022-10-31T00:11:02.777Z,7.83
2022-10-31T00:12:02.761Z,7.83
2022-10-31T00:13:02.918Z,7.83
2022-10-31T00:14:02.827Z,7.86
2022-10-31T00:15:02.731Z,7.90
2022-10-31T00:16:02.711Z,7.89
2022-10-31T00:17:02.710Z,7.85
2022-10-31T00:18:02.872Z,7.83
2022-10-31T00:19:02.699Z,7.79
2022-10-31T00:20:02.723Z,7.80
2022-10-31T00:21:02.668Z,7.75
2022-10-31T00:22:02.657Z,7.75
2022-10-31T00:23:02.652Z,7.71
2022-10-31T00:24:02.645Z,7.74
2022-10-31T00:25:02.629Z,7.68
2022-10-31T00:26:02.615Z,7.71
2022-10-31T00:27:02.598Z,7.69
2022-10-31T00:28:03.401Z,7.68
2022-10-31T00:29:02.634Z,7.68
2022-10-31T00:30:02.584Z,7.68
2022-10-31T00:31:02.544Z,7.72
2022-10-31T00:32:02.555Z,7.74
2022-10-31T00:33:02.912Z,7.79
2022-10-31T00:34:02.544Z,7.83
2022-10-31T00:35:02.505Z,7.89
2022-10-31T00:36:02.506Z,7.92
2022-10-31T00:37:02.487Z,7.89
2022-10-31T00:38:02.478Z,7.83
2022-10-31T00:39:02.481Z,7.77
2022-10-31T00:40:02.455Z,7.74
2022-10-31T00:41:02.446Z,7.71
2022-10-31T00:42:02.887Z,7.68
2022-10-31T00:43:02.882Z,7.63
2022-10-31T00:44:02.436Z,7.67
2022-10-31T00:45:02.396Z,7.68
2022-10-31T00:46:02.398Z,7.71
2022-10-31T00:47:02.385Z,7.74
2022-10-31T00:48:02.816Z,7.75
2022-10-31T00:49:02.358Z,7.67
2022-10-31T00:50:02.365Z,7.63
2022-10-31T00:51:02.434Z,7.55
2022-10-31T00:52:02.326Z,7.50
2022-10-31T00:53:02.309Z,7.53
2022-10-31T00:54:02.310Z,7.55
2022-10-31T00:55:02.344Z,7.53
2022-10-31T00:56:02.371Z,7.49
2022-10-31T00:57:02.360Z,7.49
2022-10-31T00:58:02.840Z,7.48
2022-10-31T00:59:02.261Z,7.48
2022-10-31T01:00:02.257Z,7.49
2022-10-31T01:01:02.480Z,7.50
2022-10-31T01:02:02.388Z,7.57
2022-10-31T01:03:02.558Z,7.50
2022-10-31T01:04:02.204Z,7.49
2022-10-31T01:05:02.201Z,7.48
2022-10-31T01:06:02.181Z,7.48
2022-10-31T01:07:02.184Z,7.42
2022-10-31T01:08:02.162Z,7.39
2022-10-31T01:09:02.140Z,7.35
2022-10-31T01:10:02.133Z,7.39
2022-10-31T01:11:02.123Z,7.37
2022-10-31T01:12:02.124Z,7.35
2022-10-31T01:13:02.391Z,7.34
2022-10-31T01:14:02.092Z,7.28
2022-10-31T01:15:02.100Z,7.28
2022-10-31T01:16:02.078Z,7.30
2022-10-31T01:17:02.066Z,7.32
2022-10-31T01:18:02.429Z,7.31
2022-10-31T01:19:02.036Z,7.27
2022-10-31T01:20:02.043Z,7.27
2022-10-31T01:21:02.005Z,7.28
2022-10-31T01:22:02.007Z,7.24
2022-10-31T01:23:02.005Z,7.27
2022-10-31T01:24:01.996Z,7.37
2022-10-31T01:25:01.965Z,7.39
2022-10-31T01:26:01.987Z,7.39
2022-10-31T01:27:01.946Z,7.39
2022-10-31T01:28:02.392Z,7.39
2022-10-31T01:29:01.935Z,7.40
2022-10-31T01:30:01.925Z,7.46
2022-10-31T01:31:01.898Z,7.50
2022-10-31T01:32:01.903Z,7.52
2022-10-31T01:33:02.160Z,7.50
2022-10-31T01:34:01.880Z,7.49
2022-10-31T01:35:01.866Z,7.48
2022-10-31T01:36:01.860Z,7.49
2022-10-31T01:37:01.839Z,7.46
2022-10-31T01:38:01.840Z,7.43
2022-10-31T01:39:01.820Z,7.39
2022-10-31T01:40:01.812Z,7.37
2022-10-31T01:41:01.800Z,7.34
2022-10-31T01:42:01.791Z,7.35
2022-10-31T01:43:02.191Z,7.30
2022-10-31T01:44:01.780Z,7.27
2022-10-31T01:45:01.751Z,7.21
2022-10-31T01:46:01.753Z,7.16
2022-10-31T01:47:01.731Z,7.13
2022-10-31T01:48:02.027Z,7.13
2022-10-31T01:49:01.708Z,7.17
2022-10-31T01:50:01.714Z,7.16
2022-10-31T01:51:01.695Z,7.17
2022-10-31T01:52:01.692Z,7.20
2022-10-31T01:53:01.663Z,7.17
2022-10-31T01:54:01.665Z,7.27
2022-10-31T01:55:01.646Z,7.34
2022-10-31T01:56:01.655Z,7.32
2022-10-31T01:57:01.613Z,7.35
2022-10-31T01:58:02.291Z,7.37
2022-10-31T01:59:01.615Z,7.35
2022-10-31T02:00:01.611Z,7.30
2022-10-31T02:01:04.930Z,7.25
2022-10-31T02:02:02.813Z,7.23
2022-10-31T02:03:01.990Z,7.23
2022-10-31T02:04:01.549Z,7.17
2022-10-31T02:05:01.553Z,7.20
2022-10-31T02:06:01.536Z,7.15
2022-10-31T02:07:01.524Z,7.16
2022-10-31T02:08:01.528Z,7.12
2022-10-31T02:09:01.494Z,7.15
2022-10-31T02:10:01.487Z,7.15
2022-10-31T02:11:01.490Z,7.16
2022-10-31T02:12:01.466Z,7.23
2022-10-31T02:13:01.844Z,7.30
2022-10-31T02:14:01.446Z,7.27
2022-10-31T02:15:01.439Z,7.32
2022-10-31T02:16:01.441Z,7.31
2022-10-31T02:17:02.057Z,7.27
2022-10-31T02:18:01.885Z,7.24
2022-10-31T02:19:01.409Z,7.20
2022-10-31T02:20:01.379Z,7.15
2022-10-31T02:21:01.368Z,7.10
2022-10-31T02:22:01.374Z,7.09
2022-10-31T02:23:01.339Z,7.03
2022-10-31T02:24:01.341Z,7.05
2022-10-31T02:25:01.332Z,7.06
2022-10-31T02:26:01.318Z,7.02
2022-10-31T02:27:01.300Z,6.94
2022-10-31T02:28:01.850Z,6.91
2022-10-31T02:29:01.278Z,6.97
2022-10-31T02:30:01.280Z,7.09
2022-10-31T02:31:01.260Z,7.15
2022-10-31T02:32:01.252Z,7.20
2022-10-31T02:33:01.600Z,7.17
2022-10-31T02:34:01.233Z,7.16
2022-10-31T02:35:01.253Z,7.16
2022-10-31T02:36:01.214Z,7.10
2022-10-31T02:37:01.207Z,7.06
2022-10-31T02:38:01.182Z,7.02
2022-10-31T02:39:01.193Z,7.02
2022-10-31T02:40:01.153Z,6.99
2022-10-31T02:41:01.153Z,7.06
2022-10-31T02:42:01.147Z,7.06
2022-10-31T02:43:01.348Z,7.12
2022-10-31T02:44:01.123Z,7.23
2022-10-31T02:45:01.134Z,7.30
2022-10-31T02:46:01.105Z,7.32
2022-10-31T02:47:01.086Z,7.30
2022-10-31T02:48:01.431Z,7.28
2022-10-31T02:49:01.065Z,7.27
2022-10-31T02:50:01.076Z,7.21
2022-10-31T02:51:01.055Z,7.20
2022-10-31T02:52:01.035Z,7.15
2022-10-31T02:53:01.025Z,7.12
2022-10-31T02:54:01.014Z,7.13
2022-10-31T02:55:01.006Z,7.12
2022-10-31T02:56:00.989Z,7.06
2022-10-31T02:57:00.979Z,7.05
2022-10-31T02:58:01.253Z,7.05
2022-10-31T02:59:01.003Z,7.06
2022-10-31T03:00:01.042Z,7.06
2022-10-31T03:01:00.985Z,7.12
2022-10-31T03:02:01.109Z,7.15
2022-10-31T03:03:01.266Z,7.20
2022-10-31T03:04:00.901Z,7.24
2022-10-31T03:05:00.899Z,7.30
2022-10-31T03:06:00.887Z,7.28
2022-10-31T03:07:00.880Z,7.30
2022-10-31T03:08:00.859Z,7.30
2022-10-31T03:09:00.851Z,7.25
2022-10-31T03:10:00.842Z,7.20
2022-10-31T03:11:00.929Z,7.16
2022-10-31T03:12:00.810Z,7.07
2022-10-31T03:13:01.228Z,7.03
2022-10-31T03:14:00.800Z,6.95
2022-10-31T03:15:00.791Z,6.99
2022-10-31T03:16:00.772Z,6.95
2022-10-31T03:17:00.780Z,6.99
2022-10-31T03:18:01.114Z,7.05
2022-10-31T03:19:00.752Z,7.03
2022-10-31T03:20:00.737Z,7.07
2022-10-31T03:21:00.722Z,7.09
2022-10-31T03:22:00.704Z,7.07
2022-10-31T03:23:00.719Z,6.99
2022-10-31T03:24:00.691Z,6.99
2022-10-31T03:25:00.683Z,6.94
2022-10-31T03:26:00.671Z,6.92
2022-10-31T03:27:00.671Z,6.89
2022-10-31T03:28:00.859Z,6.91
2022-10-31T03:29:00.656Z,6.97
2022-10-31T03:30:00.624Z,7.03
2022-10-31T03:31:02.358Z,7.05
2022-10-31T03:32:00.625Z,7.05
2022-10-31T03:33:00.977Z,7.02
2022-10-31T03:34:00.590Z,6.99
2022-10-31T03:35:00.645Z,6.97
2022-10-31T03:36:00.581Z,6.94
2022-10-31T03:37:00.685Z,6.92
2022-10-31T03:38:04.145Z,6.91
2022-10-31T03:39:01.558Z,6.89
2022-10-31T03:40:00.516Z,6.87
2022-10-31T03:41:00.661Z,6.88
2022-10-31T03:42:00.524Z,6.88
2022-10-31T03:43:00.757Z,6.85
2022-10-31T03:44:00.488Z,6.80
2022-10-31T03:45:00.475Z,6.79
2022-10-31T03:46:00.457Z,6.76
2022-10-31T03:47:00.449Z,6.73
2022-10-31T03:48:00.727Z,6.70
2022-10-31T03:49:00.429Z,6.61
2022-10-31T03:50:00.420Z,6.58
2022-10-31T03:51:00.409Z,6.54
2022-10-31T03:52:00.390Z,6.46
2022-10-31T03:53:00.383Z,6.46
2022-10-31T03:54:00.359Z,6.44
2022-10-31T03:55:00.359Z,6.48
2022-10-31T03:56:00.340Z,6.41
2022-10-31T03:57:00.340Z,6.38
2022-10-31T03:58:00.789Z,6.37
2022-10-31T03:59:00.321Z,6.37
2022-10-31T04:00:00.300Z,6.36
2022-10-31T04:01:00.340Z,6.37
2022-10-31T04:02:00.508Z,6.41
2022-10-31T04:03:00.609Z,6.44
2022-10-31T04:04:00.263Z,6.46
2022-10-31T04:05:00.257Z,6.46
2022-10-31T04:06:00.242Z,6.46
2022-10-31T04:07:00.233Z,6.48
2022-10-31T04:08:00.223Z,6.48
2022-10-31T04:09:00.231Z,6.46
2022-10-31T04:10:00.188Z,6.44
2022-10-31T04:11:00.197Z,6.51
2022-10-31T04:12:00.172Z,6.52
2022-10-31T04:13:00.505Z,6.51
2022-10-31T04:14:00.173Z,6.52
2022-10-31T04:15:00.144Z,6.51
2022-10-31T04:16:00.133Z,6.51
2022-10-31T04:17:00.127Z,6.49
2022-10-31T04:18:00.542Z,6.51
2022-10-31T04:19:00.150Z,6.49
2022-10-31T04:20:00.095Z,6.54
2022-10-31T04:21:00.089Z,6.54
2022-10-31T04:22:00.067Z,6.59
2022-10-31T04:23:00.078Z,6.67
2022-10-31T04:24:00.037Z,6.64
2022-10-31T04:25:00.048Z,6.66
2022-10-31T04:26:00.029Z,6.59
2022-10-31T04:27:00.024Z,6.56
2022-10-31T04:28:00.430Z,6.54
2022-10-31T04:29:00.011Z,6.49
2022-10-31T04:29:59.978Z,6.44
2022-10-31T04:30:59.978Z,6.41
2022-10-31T04:31:59.957Z,6.41
2022-10-31T04:33:00.195Z,6.40
2022-10-31T04:33:59.948Z,6.41
2022-10-31T04:34:59.930Z,6.41
2022-10-31T04:35:59.930Z,6.41
2022-10-31T04:36:59.920Z,6.37
2022-10-31T04:37:59.899Z,6.36
2022-10-31T04:38:59.888Z,6.36
2022-10-31T04:39:59.871Z,6.33
2022-10-31T04:40:59.871Z,6.30
2022-10-31T04:41:59.850Z,6.40
2022-10-31T04:43:00.271Z,6.41
2022-10-31T04:43:59.833Z,6.36
2022-10-31T04:44:59.836Z,6.33
2022-10-31T04:45:59.811Z,6.33
2022-10-31T04:46:59.802Z,6.33
2022-10-31T04:48:00.114Z,6.30
2022-10-31T04:48:59.794Z,6.27
2022-10-31T04:49:59.768Z,6.27
2022-10-31T04:50:59.764Z,6.31
2022-10-31T04:51:59.766Z,6.36
2022-10-31T04:52:59.742Z,6.36
2022-10-31T04:53:59.731Z,6.38
2022-10-31T04:54:59.724Z,6.40
2022-10-31T04:55:59.714Z,6.43
2022-10-31T04:56:59.704Z,6.46
2022-10-31T04:58:00.171Z,6.44
2022-10-31T04:58:59.691Z,6.49
2022-10-31T04:59:59.669Z,6.51
2022-10-31T05:00:59.715Z,6.49
2022-10-31T05:01:59.848Z,6.51
2022-10-31T05:03:00.778Z,6.51
2022-10-31T05:03:59.620Z,6.48
2022-10-31T05:04:59.635Z,6.48
2022-10-31T05:05:59.596Z,6.44
2022-10-31T05:06:59.596Z,6.40
2022-10-31T05:07:59.678Z,6.44
2022-10-31T05:08:59.577Z,6.43
2022-10-31T05:09:59.557Z,6.54
2022-10-31T05:11:03.251Z,6.54
2022-10-31T05:12:00.540Z,6.59
2022-10-31T05:13:00.125Z,6.66
2022-10-31T05:13:59.524Z,6.76
2022-10-31T05:14:59.509Z,6.80
2022-10-31T05:15:59.509Z,6.77
2022-10-31T05:16:59.911Z,6.76
2022-10-31T05:18:00.014Z,6.76
2022-10-31T05:18:59.486Z,6.73
2022-10-31T05:19:59.468Z,6.67
2022-10-31T05:20:59.446Z,6.62
2022-10-31T05:21:59.440Z,6.66
2022-10-31T05:22:59.420Z,6.70
2022-10-31T05:23:59.399Z,6.70
2022-10-31T05:24:59.398Z,6.64
2022-10-31T05:25:59.389Z,6.64
2022-10-31T05:26:59.382Z,6.58
2022-10-31T05:27:59.814Z,6.54
2022-10-31T05:28:59.358Z,6.49
2022-10-31T05:30:59.337Z,6.40
2022-10-31T05:31:59.311Z,6.52
2022-10-31T05:32:59.705Z,6.73
2022-10-31T05:33:59.292Z,6.84
2022-10-31T05:34:59.291Z,7.05
2022-10-31T05:35:59.318Z,7.13
2022-10-31T05:36:59.274Z,7.24
2022-10-31T05:37:59.262Z,7.31
2022-10-31T05:38:59.252Z,7.31
2022-10-31T05:40:02.322Z,7.31
2022-10-31T05:40:59.231Z,7.27
2022-10-31T05:41:59.216Z,7.21
2022-10-31T05:42:59.653Z,7.17
2022-10-31T05:43:59.203Z,7.07
2022-10-31T05:44:59.193Z,7.06
2022-10-31T05:45:59.226Z,7.03
2022-10-31T05:46:59.176Z,6.99
2022-10-31T05:47:59.712Z,6.92
2022-10-31T05:49:02.495Z,6.81
2022-10-31T05:49:59.286Z,6.77
2022-10-31T05:50:59.125Z,6.87
2022-10-31T05:51:59.108Z,6.94
2022-10-31T05:52:59.105Z,6.94
2022-10-31T05:53:59.104Z,6.91
2022-10-31T05:54:59.086Z,6.94
2022-10-31T05:55:59.066Z,7.03
2022-10-31T05:56:59.056Z,7.07
2022-10-31T05:57:59.340Z,7.06
2022-10-31T05:58:59.037Z,7.05
2022-10-31T05:59:59.037Z,7.05
2022-10-31T06:00:59.017Z,7.05
2022-10-31T06:01:59.005Z,7.05
2022-10-31T06:02:59.034Z,7.05
2022-10-31T06:03:58.977Z,7.05
2022-10-31T06:04:59.089Z,7.07
2022-10-31T06:05:58.967Z,7.05
2022-10-31T06:06:58.948Z,7.03
2022-10-31T06:07:59.467Z,6.99
2022-10-31T06:08:58.929Z,6.97
2022-10-31T06:09:58.912Z,6.97
2022-10-31T06:10:58.978Z,6.92
2022-10-31T06:11:58.948Z,6.89
2022-10-31T06:12:58.889Z,6.88
2022-10-31T06:13:58.871Z,6.85
2022-10-31T06:14:58.863Z,6.79
2022-10-31T06:15:58.851Z,6.77
2022-10-31T06:16:59.004Z,6.77
2022-10-31T06:17:59.182Z,6.77
2022-10-31T06:18:58.830Z,6.84
2022-10-31T06:19:59.020Z,6.79
2022-10-31T06:20:58.904Z,6.81
2022-10-31T06:21:59.603Z,6.77
2022-10-31T06:22:59.152Z,6.80
2022-10-31T06:23:58.774Z,6.89
2022-10-31T06:24:59.014Z,6.94
2022-10-31T06:25:58.794Z,6.98
2022-10-31T06:26:58.746Z,6.98
2022-10-31T06:27:58.733Z,6.99
2022-10-31T06:29:03.160Z,6.99
2022-10-31T06:29:59.710Z,6.97
2022-10-31T06:30:58.704Z,6.94
2022-10-31T06:31:58.681Z,7.02
2022-10-31T06:32:58.994Z,7.06
2022-10-31T06:33:58.661Z,7.07
2022-10-31T06:34:58.812Z,7.07
2022-10-31T06:35:58.644Z,7.09
2022-10-31T06:36:58.635Z,7.05
2022-10-31T06:37:58.785Z,7.09
2022-10-31T06:38:58.656Z,7.09
2022-10-31T06:39:58.696Z,7.20
2022-10-31T06:40:58.587Z,7.21
2022-10-31T06:41:58.574Z,7.21
2022-10-31T06:42:58.640Z,7.24
2022-10-31T06:43:58.565Z,7.27
2022-10-31T06:44:58.547Z,7.34
2022-10-31T06:45:58.736Z,7.42
2022-10-31T06:46:58.528Z,7.52
2022-10-31T06:49:00.313Z,7.68
2022-10-31T06:49:58.498Z,7.68
2022-10-31T06:50:59.709Z,7.77
2022-10-31T06:51:58.478Z,7.80
2022-10-31T06:52:59.342Z,7.89
2022-10-31T06:53:58.449Z,7.95
2022-10-31T06:54:58.439Z,8.01
2022-10-31T06:55:59.402Z,8.07
2022-10-31T06:56:58.421Z,8.15
2022-10-31T06:58:01.924Z,8.20
2022-10-31T06:58:58.390Z,8.33
2022-10-31T06:59:58.380Z,8.37
2022-10-31T07:00:58.396Z,8.40
2022-10-31T07:01:58.585Z,8.48
2022-10-31T07:02:58.349Z,8.52
2022-10-31T07:03:58.342Z,8.59
2022-10-31T07:04:58.349Z,8.65
2022-10-31T07:05:58.583Z,8.70
2022-10-31T07:06:58.300Z,8.77
2022-10-31T07:07:58.792Z,8.84
2022-10-31T07:08:58.286Z,8.92
2022-10-31T07:09:58.340Z,8.95
2022-10-31T07:10:58.270Z,9.04
2022-10-31T07:11:58.253Z,9.15
2022-10-31T07:12:58.559Z,9.26
2022-10-31T07:13:58.233Z,9.40
2022-10-31T07:14:58.224Z,9.53
2022-10-31T07:15:59.024Z,9.61
2022-10-31T07:16:58.744Z,9.68
2022-10-31T07:17:58.193Z,9.74
2022-10-31T07:18:58.175Z,9.79
2022-10-31T07:19:58.184Z,9.89
2022-10-31T07:20:58.185Z,9.94
2022-10-31T07:21:59.097Z,10.02
2022-10-31T07:22:58.134Z,10.08
2022-10-31T07:23:58.129Z,10.11
2022-10-31T07:24:58.927Z,10.18
2022-10-31T07:25:58.114Z,10.26
2022-10-31T07:27:58.329Z,10.36
2022-10-31T07:28:58.467Z,10.42
2022-10-31T07:29:58.067Z,10.48
2022-10-31T07:30:58.057Z,10.55
2022-10-31T07:31:58.057Z,10.61
2022-10-31T07:32:58.029Z,10.64
2022-10-31T07:33:58.858Z,10.70
2022-10-31T07:34:58.119Z,10.73
2022-10-31T07:35:58.841Z,10.79
2022-10-31T07:36:57.994Z,10.81
2022-10-31T07:37:59.124Z,10.89
2022-10-31T07:38:57.960Z,10.85
2022-10-31T07:39:57.957Z,10.89
2022-10-31T07:40:57.953Z,10.89
2022-10-31T07:41:58.751Z,10.92
2022-10-31T07:42:58.732Z,10.99
2022-10-31T07:43:57.913Z,11.00
2022-10-31T07:44:57.926Z,11.04
2022-10-31T07:45:58.103Z,11.09
2022-10-31T07:46:57.879Z,11.11
2022-10-31T07:47:58.251Z,11.11
2022-10-31T07:48:57.870Z,11.11
2022-10-31T07:49:57.853Z,11.15
2022-10-31T07:50:57.833Z,11.14
2022-10-31T07:51:57.824Z,11.06
2022-10-31T07:52:57.804Z,11.04
2022-10-31T07:53:57.803Z,11.09
2022-10-31T07:54:57.797Z,11.10
2022-10-31T07:55:57.794Z,11.18
2022-10-31T07:56:57.766Z,11.21
2022-10-31T07:57:58.043Z,11.18
2022-10-31T07:58:57.747Z,11.09
2022-10-31T07:59:57.734Z,11.11
2022-10-31T08:00:57.861Z,11.11
2022-10-31T08:01:57.724Z,11.10
2022-10-31T08:02:58.797Z,11.11
2022-10-31T08:03:57.697Z,11.18
2022-10-31T08:05:01.116Z,11.22
2022-10-31T08:05:58.501Z,11.29
2022-10-31T08:06:57.667Z,11.27
2022-10-31T08:07:57.921Z,11.27
2022-10-31T08:08:57.647Z,11.35
2022-10-31T08:09:57.677Z,11.39
2022-10-31T08:10:57.619Z,11.39
2022-10-31T08:11:57.607Z,11.42
2022-10-31T08:12:57.590Z,11.42
2022-10-31T08:13:57.590Z,11.47
2022-10-31T08:14:57.560Z,11.46
2022-10-31T08:15:58.370Z,11.57
2022-10-31T08:16:57.551Z,11.61
2022-10-31T08:17:57.819Z,11.64
2022-10-31T08:18:57.711Z,11.67
2022-10-31T08:19:57.524Z,11.75
2022-10-31T08:20:57.503Z,11.72
2022-10-31T08:21:57.492Z,11.73
2022-10-31T08:22:57.499Z,11.78
2022-10-31T08:23:57.488Z,11.78
2022-10-31T08:24:57.455Z,11.76
2022-10-31T08:25:57.453Z,11.72
2022-10-31T08:26:57.433Z,11.80
2022-10-31T08:27:58.093Z,11.82
2022-10-31T08:28:57.432Z,11.73
2022-10-31T08:29:57.405Z,11.73
2022-10-31T08:30:57.395Z,11.76
2022-10-31T08:31:57.394Z,11.79
2022-10-31T08:32:57.386Z,11.83
2022-10-31T08:33:57.376Z,11.91
2022-10-31T08:34:57.357Z,12.02
2022-10-31T08:35:57.356Z,12.12
2022-10-31T08:36:57.327Z,12.20
2022-10-31T08:37:57.537Z,12.35
2022-10-31T08:39:01.657Z,12.57
2022-10-31T08:39:57.305Z,12.79
2022-10-31T08:40:57.290Z,12.89
2022-10-31T08:41:57.388Z,12.92
2022-10-31T08:42:57.268Z,12.71
2022-10-31T08:43:57.258Z,12.67
2022-10-31T08:44:57.830Z,12.59
2022-10-31T08:45:57.239Z,12.52
2022-10-31T08:46:57.231Z,12.45
2022-10-31T08:47:57.510Z,12.37
2022-10-31T08:48:57.199Z,12.29
2022-10-31T08:49:57.520Z,12.20
2022-10-31T08:50:57.350Z,12.27
2022-10-31T08:51:57.262Z,12.34
2022-10-31T08:53:05.194Z,12.39
2022-10-31T08:53:58.151Z,12.37
2022-10-31T08:54:57.132Z,12.39
2022-10-31T08:55:57.141Z,12.45
2022-10-31T08:56:57.125Z,12.47
2022-10-31T08:57:57.217Z,12.60
2022-10-31T08:58:57.092Z,12.72
2022-10-31T08:59:57.082Z,12.82
2022-10-31T09:00:57.117Z,12.90
2022-10-31T09:01:57.226Z,12.92
2022-10-31T09:02:57.055Z,13.07
2022-10-31T09:03:57.046Z,13.17
2022-10-31T09:04:57.844Z,13.28
2022-10-31T09:05:57.064Z,13.19
2022-10-31T09:07:58.241Z,13.14
2022-10-31T09:08:57.775Z,13.36
2022-10-31T09:09:56.987Z,13.63
2022-10-31T09:10:56.966Z,13.84
2022-10-31T09:11:57.777Z,13.89
2022-10-31T09:12:56.940Z,13.95
2022-10-31T09:13:56.941Z,13.95
2022-10-31T09:14:56.919Z,14.12
2022-10-31T09:15:56.918Z,14.17
2022-10-31T09:16:56.910Z,14.20
2022-10-31T09:17:56.963Z,14.17
2022-10-31T09:18:56.870Z,14.15
2022-10-31T09:19:56.870Z,14.10
2022-10-31T09:20:56.873Z,14.07
2022-10-31T09:21:57.592Z,14.33
2022-10-31T09:22:56.860Z,14.45
2022-10-31T09:23:56.830Z,14.47
2022-10-31T09:24:56.815Z,14.47
2022-10-31T09:25:56.806Z,14.54
2022-10-31T09:26:56.795Z,14.64
2022-10-31T09:27:56.783Z,14.62
2022-10-31T09:28:56.763Z,14.62
2022-10-31T09:29:56.768Z,14.54
2022-10-31T09:30:56.743Z,14.55
2022-10-31T09:31:56.772Z,14.69
2022-10-31T09:32:56.722Z,14.69
2022-10-31T09:33:56.714Z,14.65
2022-10-31T09:34:56.704Z,14.72
2022-10-31T09:35:56.706Z,14.89
2022-10-31T09:36:56.686Z,15.09
2022-10-31T09:37:56.678Z,15.09
2022-10-31T09:38:56.667Z,15.07
2022-10-31T09:39:56.658Z,15.27
2022-10-31T09:40:56.636Z,15.49
2022-10-31T09:41:57.608Z,15.39
2022-10-31T09:42:56.616Z,15.07
2022-10-31T09:43:56.620Z,14.92
2022-10-31T09:44:56.609Z,14.72
2022-10-31T09:45:56.590Z,14.69
2022-10-31T09:46:56.575Z,14.88
2022-10-31T09:47:57.760Z,15.07
2022-10-31T09:48:56.558Z,15.34
2022-10-31T09:49:56.608Z,15.57
2022-10-31T09:50:56.540Z,15.67
2022-10-31T09:51:56.583Z,15.86
2022-10-31T09:52:56.511Z,15.97
2022-10-31T09:53:56.502Z,16.17
2022-10-31T09:54:56.489Z,16.20
2022-10-31T09:55:56.493Z,16.31
2022-10-31T09:56:56.479Z,16.23
2022-10-31T09:57:56.493Z,16.24
2022-10-31T09:58:56.446Z,15.89
2022-10-31T09:59:56.433Z,15.69
2022-10-31T10:00:56.491Z,15.60
2022-10-31T10:01:56.486Z,15.57
2022-10-31T10:02:56.394Z,15.50
2022-10-31T10:03:56.397Z,15.43
2022-10-31T10:04:56.376Z,15.14
2022-10-31T10:05:56.712Z,15.03
2022-10-31T10:06:56.357Z,15.07
2022-10-31T10:07:56.366Z,15.14
2022-10-31T10:08:56.330Z,15.20
2022-10-31T10:09:56.337Z,14.91
2022-10-31T10:10:56.326Z,14.89
2022-10-31T10:11:56.308Z,14.94
2022-10-31T10:12:56.296Z,15.07
2022-10-31T10:13:56.291Z,15.14
2022-10-31T10:14:56.419Z,15.10
2022-10-31T10:15:56.269Z,15.13
2022-10-31T10:16:56.249Z,15.16
2022-10-31T10:17:56.249Z,15.06
2022-10-31T10:18:56.230Z,14.98
2022-10-31T10:19:57.040Z,14.60
2022-10-31T10:20:56.221Z,14.37
2022-10-31T10:21:56.199Z,14.39
2022-10-31T10:22:56.182Z,14.54
2022-10-31T10:23:56.184Z,14.65
2022-10-31T10:24:56.701Z,14.64
2022-10-31T10:25:56.163Z,14.54
2022-10-31T10:26:56.172Z,14.58
2022-10-31T10:27:56.583Z,14.69
2022-10-31T10:28:56.141Z,14.77
2022-10-31T10:29:56.134Z,14.72
2022-10-31T10:30:56.103Z,14.60
2022-10-31T10:31:56.914Z,14.46
2022-10-31T10:32:56.082Z,14.40
2022-10-31T10:33:56.092Z,14.29
2022-10-31T10:34:56.061Z,14.24
2022-10-31T10:35:56.054Z,14.29
2022-10-31T10:36:56.046Z,14.40
2022-10-31T10:37:56.033Z,14.43
2022-10-31T10:38:56.017Z,14.35
2022-10-31T10:39:56.006Z,14.28
2022-10-31T10:40:55.996Z,14.39
2022-10-31T10:41:55.987Z,14.46
2022-10-31T10:42:55.978Z,14.46
2022-10-31T10:43:55.969Z,14.51
2022-10-31T10:44:55.949Z,14.64
2022-10-31T10:45:55.940Z,14.77
2022-10-31T10:46:55.932Z,14.83
2022-10-31T10:47:56.750Z,14.65
2022-10-31T10:48:55.901Z,14.69
2022-10-31T10:49:55.908Z,14.75
2022-10-31T10:50:55.880Z,14.88
2022-10-31T10:52:56.872Z,14.83
2022-10-31T10:53:55.868Z,14.89
2022-10-31T10:54:55.841Z,14.83
2022-10-31T10:55:55.842Z,14.77
2022-10-31T10:56:55.829Z,14.80
2022-10-31T10:57:55.823Z,14.75
2022-10-31T10:58:56.028Z,14.83
2022-10-31T10:59:55.794Z,14.78
2022-10-31T11:00:55.891Z,14.84
2022-10-31T11:01:55.784Z,14.96
2022-10-31T11:02:55.757Z,15.03
2022-10-31T11:03:55.764Z,15.09
2022-10-31T11:04:55.735Z,15.16
2022-10-31T11:05:55.741Z,15.23
2022-10-31T11:06:55.715Z,15.14
2022-10-31T11:07:55.704Z,15.16
2022-10-31T11:08:55.700Z,15.06
2022-10-31T11:09:55.697Z,14.99
2022-10-31T11:10:55.686Z,15.02
2022-10-31T11:11:55.668Z,14.91
2022-10-31T11:12:55.651Z,14.77
2022-10-31T11:13:55.632Z,14.81
2022-10-31T11:14:55.641Z,14.83
2022-10-31T11:15:55.628Z,14.88
2022-10-31T11:16:55.608Z,14.91
2022-10-31T11:17:55.598Z,14.78
2022-10-31T11:18:55.589Z,14.72
2022-10-31T11:19:55.571Z,14.72
2022-10-31T11:20:55.570Z,14.68
2022-10-31T11:21:55.668Z,14.77
2022-10-31T11:22:55.542Z,14.81
2022-10-31T11:23:55.530Z,14.81
2022-10-31T11:24:55.530Z,14.64
2022-10-31T11:25:55.503Z,14.61
2022-10-31T11:26:55.615Z,14.61
2022-10-31T11:27:56.304Z,14.78
2022-10-31T11:28:55.484Z,14.91
2022-10-31T11:30:00.520Z,14.98
2022-10-31T11:30:56.456Z,15.07
2022-10-31T11:31:55.570Z,15.13
2022-10-31T11:32:55.447Z,15.20
2022-10-31T11:33:55.420Z,15.17
2022-10-31T11:34:56.233Z,15.21
2022-10-31T11:35:58.125Z,15.14
2022-10-31T11:36:56.208Z,15.23
2022-10-31T11:37:55.395Z,15.28
2022-10-31T11:38:55.378Z,15.21
2022-10-31T11:39:55.357Z,15.17
2022-10-31T11:40:56.366Z,15.16
2022-10-31T11:41:56.301Z,15.14
2022-10-31T11:42:55.338Z,15.21
2022-10-31T11:43:55.317Z,15.32
2022-10-31T11:44:55.549Z,15.46
2022-10-31T11:45:55.289Z,15.67
2022-10-31T11:46:55.288Z,16.04
2022-10-31T11:47:59.537Z,16.48
2022-10-31T11:48:55.294Z,16.93
2022-10-31T11:49:55.301Z,17.11
2022-10-31T11:50:55.242Z,17.41
2022-10-31T11:51:55.229Z,17.92
2022-10-31T11:53:58.265Z,18.29
2022-10-31T11:54:56.347Z,18.30
2022-10-31T11:55:55.182Z,18.20
2022-10-31T11:56:55.184Z,18.30
2022-10-31T11:57:55.164Z,18.47
2022-10-31T11:58:55.154Z,18.72
2022-10-31T11:59:55.956Z,18.91
2022-10-31T12:00:55.134Z,19.18
2022-10-31T12:01:55.278Z,19.47
2022-10-31T12:02:55.252Z,19.36
2022-10-31T12:03:55.108Z,18.85
2022-10-31T12:04:55.096Z,18.48
2022-10-31T12:05:55.088Z,18.39
2022-10-31T12:06:55.069Z,18.26
2022-10-31T12:08:00.563Z,18.44
2022-10-31T12:08:56.051Z,18.50
2022-10-31T12:09:55.029Z,18.63
2022-10-31T12:10:55.039Z,18.94
2022-10-31T12:11:55.091Z,19.18
2022-10-31T12:12:55.008Z,19.47
2022-10-31T12:13:58.608Z,19.63
2022-10-31T12:14:56.802Z,19.40
2022-10-31T12:15:54.962Z,19.25
2022-10-31T12:16:54.971Z,19.23
2022-10-31T12:17:54.986Z,19.21
2022-10-31T12:18:54.943Z,19.29
2022-10-31T12:19:56.220Z,19.31
2022-10-31T12:20:54.924Z,19.28
2022-10-31T12:21:54.915Z,19.13
2022-10-31T12:22:54.905Z,19.23
2022-10-31T12:23:54.876Z,19.43
2022-10-31T12:24:55.065Z,19.58
2022-10-31T12:25:54.876Z,19.78
2022-10-31T12:26:54.858Z,19.87
2022-10-31T12:27:54.877Z,19.73
2022-10-31T12:28:55.561Z,19.96
2022-10-31T12:29:54.828Z,19.88
2022-10-31T12:30:54.816Z,19.83
2022-10-31T12:31:54.830Z,19.59
2022-10-31T12:32:54.806Z,19.39
2022-10-31T12:33:54.778Z,19.58
2022-10-31T12:34:54.850Z,19.61
2022-10-31T12:35:55.050Z,19.54
2022-10-31T12:36:54.751Z,19.29
2022-10-31T12:37:54.740Z,19.39
2022-10-31T12:38:54.731Z,19.58
2022-10-31T12:39:54.823Z,19.61
2022-10-31T12:40:54.720Z,19.76
2022-10-31T12:41:54.703Z,19.73
2022-10-31T12:42:54.698Z,19.69
2022-10-31T12:43:55.485Z,19.80
2022-10-31T12:44:55.474Z,19.91
2022-10-31T12:45:54.647Z,20.11
2022-10-31T12:46:54.662Z,20.24
2022-10-31T12:47:54.637Z,20.57
2022-10-31T12:48:57.351Z,20.77
2022-10-31T12:49:54.598Z,20.76
2022-10-31T12:50:54.599Z,20.69
2022-10-31T12:51:55.067Z,20.87
2022-10-31T12:52:54.578Z,21.06
2022-10-31T12:53:54.558Z,21.31
2022-10-31T12:54:54.589Z,21.54
2022-10-31T12:55:54.542Z,21.65
2022-10-31T12:56:54.538Z,21.27
2022-10-31T12:57:54.768Z,21.32
2022-10-31T12:58:54.520Z,21.49
2022-10-31T12:59:54.502Z,21.67
2022-10-31T13:00:54.630Z,21.82
2022-10-31T13:01:54.659Z,21.65
2022-10-31T13:02:54.473Z,21.53
2022-10-31T13:03:54.457Z,21.47
2022-10-31T13:04:54.453Z,21.61
2022-10-31T13:05:54.553Z,21.71
2022-10-31T13:06:54.434Z,21.69
2022-10-31T13:07:54.423Z,21.90
2022-10-31T13:08:54.410Z,21.88
2022-10-31T13:09:54.394Z,21.94
2022-10-31T13:10:54.459Z,22.12
2022-10-31T13:11:54.385Z,21.61